sensor_id;sensor_type;location;lat;lon;timestamp;P1;durP1;ratioP1;P2;durP2;ratioP2
38972;SDS011;25333;50.762;4.470;2022-08-19T00:01:15;6.32;;;4.90;;
38972;SDS011;25333;50.762;4.470;2022-08-19T00:03:41;6.68;;;5.28;;
38972;SDS011;25333;50.762;4.470;2022-08-19T00:06:06;5.00;;;4.50;;
38972;SDS011;25333;50.762;4.470;2022-08-19T00:08:32;4.82;;;4.28;;
38972;SDS011;25333;50.762;4.470;2022-08-19T00:10:57;5.05;;;4.55;;
38972;SDS011;25333;50.762;4.470;2022-08-19T00:13:23;5.10;;;4.60;;
38972;SDS011;25333;50.762;4.470;2022-08-19T00:15:49;5.13;;;4.57;;
38972;SDS011;25333;50.762;4.470;2022-08-19T00:18:14;6.53;;;5.07;;
38972;SDS011;25333;50.762;4.470;2022-08-19T00:20:40;5.50;;;4.13;;
38972;SDS011;25333;50.762;4.470;2022-08-19T00:23:06;5.67;;;4.33;;
38972;SDS011;25333;50.762;4.470;2022-08-19T00:25:31;4.13;;;3.72;;
38972;SDS011;25333;50.762;4.470;2022-08-19T00:27:58;4.47;;;3.47;;
38972;SDS011;25333;50.762;4.470;2022-08-19T00:30:24;5.43;;;4.90;;
38972;SDS011;25333;50.762;4.470;2022-08-19T00:32:50;7.28;;;5.22;;
38972;SDS011;25333;50.762;4.470;2022-08-19T00:35:16;7.33;;;5.97;;
38972;SDS011;25333;50.762;4.470;2022-08-19T00:37:43;7.83;;;6.53;;
38972;SDS011;25333;50.762;4.470;2022-08-19T00:40:10;6.55;;;5.80;;
38972;SDS011;25333;50.762;4.470;2022-08-19T00:42:36;6.95;;;6.07;;
38972;SDS011;25333;50.762;4.470;2022-08-19T00:45:05;8.70;;;6.35;;
38972;SDS011;25333;50.762;4.470;2022-08-19T00:47:36;6.68;;;5.95;;
38972;SDS011;25333;50.762;4.470;2022-08-19T00:50:02;7.10;;;6.38;;
38972;SDS011;25333;50.762;4.470;2022-08-19T00:52:29;9.60;;;7.85;;
38972;SDS011;25333;50.762;4.470;2022-08-19T00:54:58;8.10;;;7.18;;
38972;SDS011;25333;50.762;4.470;2022-08-19T00:57:29;9.00;;;8.05;;
38972;SDS011;25333;50.762;4.470;2022-08-19T00:59:59;9.52;;;8.52;;
38972;SDS011;25333;50.762;4.470;2022-08-19T01:02:26;9.90;;;8.90;;
38972;SDS011;25333;50.762;4.470;2022-08-19T01:04:53;10.10;;;8.50;;
38972;SDS011;25333;50.762;4.470;2022-08-19T01:07:18;9.98;;;7.97;;
38972;SDS011;25333;50.762;4.470;2022-08-19T01:09:44;12.27;;;10.17;;
38972;SDS011;25333;50.762;4.470;2022-08-19T01:12:10;10.77;;;9.63;;
38972;SDS011;25333;50.762;4.470;2022-08-19T01:14:36;11.45;;;10.35;;
38972;SDS011;25333;50.762;4.470;2022-08-19T01:17:04;11.98;;;9.77;;
38972;SDS011;25333;50.762;4.470;2022-08-19T01:19:33;11.43;;;9.70;;
38972;SDS011;25333;50.762;4.470;2022-08-19T01:24:33;13.20;;;11.73;;
38972;SDS011;25333;50.762;4.470;2022-08-19T01:26:59;17.53;;;13.90;;
38972;SDS011;25333;50.762;4.470;2022-08-19T01:29:25;13.00;;;11.70;;
38972;SDS011;25333;50.762;4.470;2022-08-19T01:31:50;13.00;;;11.40;;
38972;SDS011;25333;50.762;4.470;2022-08-19T01:34:17;17.52;;;11.55;;
38972;SDS011;25333;50.762;4.470;2022-08-19T01:36:45;15.45;;;13.60;;
38972;SDS011;25333;50.762;4.470;2022-08-19T01:39:22;15.13;;;13.52;;
38972;SDS011;25333;50.762;4.470;2022-08-19T01:41:50;15.10;;;12.48;;
38972;SDS011;25333;50.762;4.470;2022-08-19T01:44:17;15.63;;;13.32;;
38972;SDS011;25333;50.762;4.470;2022-08-19T01:46:46;16.77;;;12.80;;
38972;SDS011;25333;50.762;4.470;2022-08-19T01:49:12;16.30;;;13.95;;
38972;SDS011;25333;50.762;4.470;2022-08-19T01:51:38;17.48;;;15.65;;
38972;SDS011;25333;50.762;4.470;2022-08-19T01:54:04;16.90;;;13.57;;
38972;SDS011;25333;50.762;4.470;2022-08-19T01:56:30;17.10;;;14.70;;
38972;SDS011;25333;50.762;4.470;2022-08-19T01:58:57;18.33;;;15.77;;
38972;SDS011;25333;50.762;4.470;2022-08-19T02:01:26;20.97;;;16.20;;
38972;SDS011;25333;50.762;4.470;2022-08-19T02:03:51;20.10;;;16.02;;
38972;SDS011;25333;50.762;4.470;2022-08-19T02:06:18;18.02;;;15.80;;
38972;SDS011;25333;50.762;4.470;2022-08-19T02:08:44;21.10;;;16.20;;
38972;SDS011;25333;50.762;4.470;2022-08-19T02:11:17;21.77;;;17.92;;
38972;SDS011;25333;50.762;4.470;2022-08-19T02:13:44;20.17;;;17.73;;
38972;SDS011;25333;50.762;4.470;2022-08-19T02:16:10;18.38;;;15.30;;
38972;SDS011;25333;50.762;4.470;2022-08-19T02:18:35;21.15;;;16.90;;
38972;SDS011;25333;50.762;4.470;2022-08-19T02:21:01;19.30;;;16.17;;
38972;SDS011;25333;50.762;4.470;2022-08-19T02:23:27;16.60;;;13.63;;
38972;SDS011;25333;50.762;4.470;2022-08-19T02:25:52;18.77;;;15.20;;
38972;SDS011;25333;50.762;4.470;2022-08-19T02:28:18;19.80;;;15.10;;
38972;SDS011;25333;50.762;4.470;2022-08-19T02:30:43;16.23;;;14.53;;
38972;SDS011;25333;50.762;4.470;2022-08-19T02:33:10;16.88;;;14.85;;
38972;SDS011;25333;50.762;4.470;2022-08-19T02:35:35;18.50;;;15.10;;
38972;SDS011;25333;50.762;4.470;2022-08-19T02:38:01;21.03;;;15.57;;
38972;SDS011;25333;50.762;4.470;2022-08-19T02:40:49;19.33;;;15.75;;
38972;SDS011;25333;50.762;4.470;2022-08-19T02:43:16;18.75;;;16.10;;
38972;SDS011;25333;50.762;4.470;2022-08-19T02:45:43;19.55;;;16.92;;
38972;SDS011;25333;50.762;4.470;2022-08-19T02:48:08;20.83;;;16.77;;
38972;SDS011;25333;50.762;4.470;2022-08-19T02:50:38;22.95;;;16.90;;
38972;SDS011;25333;50.762;4.470;2022-08-19T02:53:04;20.90;;;16.40;;
38972;SDS011;25333;50.762;4.470;2022-08-19T02:55:31;21.75;;;18.67;;
38972;SDS011;25333;50.762;4.470;2022-08-19T02:57:56;18.87;;;16.23;;
38972;SDS011;25333;50.762;4.470;2022-08-19T03:00:22;22.37;;;18.60;;
38972;SDS011;25333;50.762;4.470;2022-08-19T03:02:49;18.67;;;15.68;;
38972;SDS011;25333;50.762;4.470;2022-08-19T03:05:14;20.75;;;17.33;;
38972;SDS011;25333;50.762;4.470;2022-08-19T03:07:40;20.70;;;16.75;;
38972;SDS011;25333;50.762;4.470;2022-08-19T03:10:06;25.52;;;18.00;;
38972;SDS011;25333;50.762;4.470;2022-08-19T03:12:34;22.48;;;17.98;;
38972;SDS011;25333;50.762;4.470;2022-08-19T03:15:01;19.13;;;16.80;;
38972;SDS011;25333;50.762;4.470;2022-08-19T03:17:26;20.73;;;16.20;;
38972;SDS011;25333;50.762;4.470;2022-08-19T03:19:52;17.97;;;16.13;;
38972;SDS011;25333;50.762;4.470;2022-08-19T03:22:17;19.57;;;14.93;;
38972;SDS011;25333;50.762;4.470;2022-08-19T03:24:43;19.60;;;15.70;;
38972;SDS011;25333;50.762;4.470;2022-08-19T03:27:08;16.77;;;14.97;;
38972;SDS011;25333;50.762;4.470;2022-08-19T03:29:34;18.63;;;14.02;;
38972;SDS011;25333;50.762;4.470;2022-08-19T03:32:03;16.13;;;13.83;;
38972;SDS011;25333;50.762;4.470;2022-08-19T03:34:31;20.70;;;14.82;;
38972;SDS011;25333;50.762;4.470;2022-08-19T03:36:59;17.98;;;14.90;;
38972;SDS011;25333;50.762;4.470;2022-08-19T03:39:31;18.25;;;14.95;;
38972;SDS011;25333;50.762;4.470;2022-08-19T03:41:56;18.77;;;15.95;;
38972;SDS011;25333;50.762;4.470;2022-08-19T03:44:25;17.77;;;15.10;;
38972;SDS011;25333;50.762;4.470;2022-08-19T03:46:52;19.95;;;15.07;;
38972;SDS011;25333;50.762;4.470;2022-08-19T03:49:20;18.65;;;14.48;;
38972;SDS011;25333;50.762;4.470;2022-08-19T03:51:47;19.87;;;16.23;;
38972;SDS011;25333;50.762;4.470;2022-08-19T03:54:14;18.42;;;15.45;;
38972;SDS011;25333;50.762;4.470;2022-08-19T03:56:41;17.85;;;14.45;;
38972;SDS011;25333;50.762;4.470;2022-08-19T03:59:09;21.48;;;16.50;;
38972;SDS011;25333;50.762;4.470;2022-08-19T04:01:38;26.98;;;17.65;;
38972;SDS011;25333;50.762;4.470;2022-08-19T04:04:04;18.08;;;13.40;;
38972;SDS011;25333;50.762;4.470;2022-08-19T04:06:31;19.65;;;15.30;;
38972;SDS011;25333;50.762;4.470;2022-08-19T04:08:59;19.63;;;15.60;;
38972;SDS011;25333;50.762;4.470;2022-08-19T04:11:29;18.17;;;15.07;;
38972;SDS011;25333;50.762;4.470;2022-08-19T04:13:56;22.08;;;18.42;;
38972;SDS011;25333;50.762;4.470;2022-08-19T04:16:23;24.27;;;17.92;;
38972;SDS011;25333;50.762;4.470;2022-08-19T04:18:50;21.25;;;16.38;;
38972;SDS011;25333;50.762;4.470;2022-08-19T04:21:17;23.10;;;18.38;;
38972;SDS011;25333;50.762;4.470;2022-08-19T04:23:44;23.85;;;17.65;;
38972;SDS011;25333;50.762;4.470;2022-08-19T04:26:14;26.40;;;19.88;;
38972;SDS011;25333;50.762;4.470;2022-08-19T04:28:45;26.30;;;20.47;;
38972;SDS011;25333;50.762;4.470;2022-08-19T04:31:15;28.08;;;21.27;;
38972;SDS011;25333;50.762;4.470;2022-08-19T04:33:46;29.90;;;21.55;;
38972;SDS011;25333;50.762;4.470;2022-08-19T04:36:15;30.07;;;21.50;;
38972;SDS011;25333;50.762;4.470;2022-08-19T04:38:45;29.10;;;23.67;;
38972;SDS011;25333;50.762;4.470;2022-08-19T04:41:11;29.60;;;21.85;;
38972;SDS011;25333;50.762;4.470;2022-08-19T04:43:55;30.43;;;21.93;;
38972;SDS011;25333;50.762;4.470;2022-08-19T04:46:21;30.45;;;22.25;;
38972;SDS011;25333;50.762;4.470;2022-08-19T04:48:46;29.73;;;20.98;;
38972;SDS011;25333;50.762;4.470;2022-08-19T04:51:12;26.60;;;21.25;;
38972;SDS011;25333;50.762;4.470;2022-08-19T04:53:39;24.77;;;19.10;;
38972;SDS011;25333;50.762;4.470;2022-08-19T04:56:07;27.37;;;21.23;;
38972;SDS011;25333;50.762;4.470;2022-08-19T04:58:35;28.23;;;19.48;;
38972;SDS011;25333;50.762;4.470;2022-08-19T05:01:02;25.83;;;20.58;;
38972;SDS011;25333;50.762;4.470;2022-08-19T05:03:29;25.80;;;17.83;;
38972;SDS011;25333;50.762;4.470;2022-08-19T05:05:58;25.15;;;19.10;;
38972;SDS011;25333;50.762;4.470;2022-08-19T05:08:32;22.35;;;16.55;;
38972;SDS011;25333;50.762;4.470;2022-08-19T05:11:00;21.13;;;17.42;;
38972;SDS011;25333;50.762;4.470;2022-08-19T05:13:25;24.27;;;17.50;;
38972;SDS011;25333;50.762;4.470;2022-08-19T05:15:55;26.08;;;19.77;;
38972;SDS011;25333;50.762;4.470;2022-08-19T05:18:22;22.45;;;18.02;;
38972;SDS011;25333;50.762;4.470;2022-08-19T05:21:07;24.55;;;19.77;;
38972;SDS011;25333;50.762;4.470;2022-08-19T05:23:54;27.08;;;20.58;;
38972;SDS011;25333;50.762;4.470;2022-08-19T05:26:19;25.67;;;20.07;;
38972;SDS011;25333;50.762;4.470;2022-08-19T05:28:45;24.95;;;19.67;;
38972;SDS011;25333;50.762;4.470;2022-08-19T05:31:11;20.02;;;17.88;;
38972;SDS011;25333;50.762;4.470;2022-08-19T05:33:37;23.70;;;18.05;;
38972;SDS011;25333;50.762;4.470;2022-08-19T05:36:04;24.40;;;18.83;;
38972;SDS011;25333;50.762;4.470;2022-08-19T05:38:30;24.95;;;18.85;;
38972;SDS011;25333;50.762;4.470;2022-08-19T05:40:57;23.97;;;19.03;;
38972;SDS011;25333;50.762;4.470;2022-08-19T05:43:22;22.10;;;16.52;;
38972;SDS011;25333;50.762;4.470;2022-08-19T05:45:48;25.10;;;18.90;;
38972;SDS011;25333;50.762;4.470;2022-08-19T05:48:15;20.00;;;17.52;;
38972;SDS011;25333;50.762;4.470;2022-08-19T05:50:45;25.00;;;18.15;;
38972;SDS011;25333;50.762;4.470;2022-08-19T05:53:11;19.10;;;15.68;;
38972;SDS011;25333;50.762;4.470;2022-08-19T05:55:37;20.20;;;15.37;;
38972;SDS011;25333;50.762;4.470;2022-08-19T05:58:05;20.08;;;15.15;;
38972;SDS011;25333;50.762;4.470;2022-08-19T06:00:35;22.00;;;16.00;;
38972;SDS011;25333;50.762;4.470;2022-08-19T06:03:02;22.10;;;15.57;;
38972;SDS011;25333;50.762;4.470;2022-08-19T06:05:29;17.45;;;12.45;;
38972;SDS011;25333;50.762;4.470;2022-08-19T06:07:55;15.80;;;14.15;;
38972;SDS011;25333;50.762;4.470;2022-08-19T06:10:21;16.20;;;13.20;;
38972;SDS011;25333;50.762;4.470;2022-08-19T06:12:47;16.15;;;11.32;;
38972;SDS011;25333;50.762;4.470;2022-08-19T06:15:13;14.85;;;11.95;;
38972;SDS011;25333;50.762;4.470;2022-08-19T06:17:40;16.37;;;10.87;;
38972;SDS011;25333;50.762;4.470;2022-08-19T06:20:08;15.60;;;11.85;;
38972;SDS011;25333;50.762;4.470;2022-08-19T06:22:44;13.03;;;9.90;;
38972;SDS011;25333;50.762;4.470;2022-08-19T06:25:14;13.48;;;9.88;;
38972;SDS011;25333;50.762;4.470;2022-08-19T06:27:40;12.13;;;8.73;;
38972;SDS011;25333;50.762;4.470;2022-08-19T06:30:12;15.48;;;9.48;;
38972;SDS011;25333;50.762;4.470;2022-08-19T06:32:40;15.55;;;9.13;;
38972;SDS011;25333;50.762;4.470;2022-08-19T06:35:06;13.37;;;9.27;;
38972;SDS011;25333;50.762;4.470;2022-08-19T06:37:35;9.73;;;6.90;;
38972;SDS011;25333;50.762;4.470;2022-08-19T06:40:10;10.23;;;6.75;;
38972;SDS011;25333;50.762;4.470;2022-08-19T06:42:37;11.65;;;7.65;;
38972;SDS011;25333;50.762;4.470;2022-08-19T06:45:27;10.73;;;7.65;;
38972;SDS011;25333;50.762;4.470;2022-08-19T06:47:53;10.25;;;7.15;;
38972;SDS011;25333;50.762;4.470;2022-08-19T06:50:21;10.98;;;7.05;;
38972;SDS011;25333;50.762;4.470;2022-08-19T06:52:48;10.50;;;6.53;;
38972;SDS011;25333;50.762;4.470;2022-08-19T06:55:14;8.95;;;5.85;;
38972;SDS011;25333;50.762;4.470;2022-08-19T06:57:42;8.18;;;6.32;;
38972;SDS011;25333;50.762;4.470;2022-08-19T07:05:49;8.90;;;6.38;;
38972;SDS011;25333;50.762;4.470;2022-08-19T07:08:14;9.40;;;6.17;;
38972;SDS011;25333;50.762;4.470;2022-08-19T07:10:44;7.07;;;5.67;;
38972;SDS011;25333;50.762;4.470;2022-08-19T07:13:10;8.95;;;6.32;;
38972;SDS011;25333;50.762;4.470;2022-08-19T07:15:52;9.97;;;6.17;;
38972;SDS011;25333;50.762;4.470;2022-08-19T07:18:19;12.30;;;6.25;;
38972;SDS011;25333;50.762;4.470;2022-08-19T07:20:46;10.63;;;7.75;;
38972;SDS011;25333;50.762;4.470;2022-08-19T07:23:12;8.60;;;7.20;;
38972;SDS011;25333;50.762;4.470;2022-08-19T07:25:38;8.82;;;6.07;;
38972;SDS011;25333;50.762;4.470;2022-08-19T07:28:04;10.02;;;6.38;;
38972;SDS011;25333;50.762;4.470;2022-08-19T07:30:32;7.30;;;5.63;;
38972;SDS011;25333;50.762;4.470;2022-08-19T07:33:00;9.60;;;6.80;;
38972;SDS011;25333;50.762;4.470;2022-08-19T07:35:26;10.45;;;7.35;;
38972;SDS011;25333;50.762;4.470;2022-08-19T07:37:57;7.88;;;5.95;;
38972;SDS011;25333;50.762;4.470;2022-08-19T07:40:23;8.17;;;6.00;;
38972;SDS011;25333;50.762;4.470;2022-08-19T07:42:49;8.18;;;6.13;;
38972;SDS011;25333;50.762;4.470;2022-08-19T07:45:15;10.63;;;5.43;;
38972;SDS011;25333;50.762;4.470;2022-08-19T07:47:41;11.02;;;6.00;;
38972;SDS011;25333;50.762;4.470;2022-08-19T07:50:08;9.37;;;5.97;;
38972;SDS011;25333;50.762;4.470;2022-08-19T07:52:36;9.15;;;5.68;;
38972;SDS011;25333;50.762;4.470;2022-08-19T07:55:04;8.13;;;5.45;;
38972;SDS011;25333;50.762;4.470;2022-08-19T07:57:31;9.73;;;5.17;;
38972;SDS011;25333;50.762;4.470;2022-08-19T07:59:57;6.63;;;5.27;;
38972;SDS011;25333;50.762;4.470;2022-08-19T08:02:23;6.95;;;5.18;;
38972;SDS011;25333;50.762;4.470;2022-08-19T08:04:49;8.10;;;5.03;;
38972;SDS011;25333;50.762;4.470;2022-08-19T08:07:32;7.80;;;5.35;;
38972;SDS011;25333;50.762;4.470;2022-08-19T08:10:30;7.32;;;4.57;;
38972;SDS011;25333;50.762;4.470;2022-08-19T08:12:56;6.20;;;3.90;;
38972;SDS011;25333;50.762;4.470;2022-08-19T08:15:25;5.13;;;4.50;;
38972;SDS011;25333;50.762;4.470;2022-08-19T08:17:51;5.97;;;4.38;;
38972;SDS011;25333;50.762;4.470;2022-08-19T08:20:17;6.00;;;4.05;;
38972;SDS011;25333;50.762;4.470;2022-08-19T08:22:46;7.55;;;4.75;;
38972;SDS011;25333;50.762;4.470;2022-08-19T08:25:31;9.95;;;4.68;;
38972;SDS011;25333;50.762;4.470;2022-08-19T08:27:57;7.22;;;4.45;;
38972;SDS011;25333;50.762;4.470;2022-08-19T08:30:26;6.60;;;4.68;;
38972;SDS011;25333;50.762;4.470;2022-08-19T08:32:54;6.57;;;4.40;;
38972;SDS011;25333;50.762;4.470;2022-08-19T08:35:21;5.50;;;3.72;;
38972;SDS011;25333;50.762;4.470;2022-08-19T08:37:48;5.18;;;3.35;;
38972;SDS011;25333;50.762;4.470;2022-08-19T08:42:43;4.53;;;2.40;;
38972;SDS011;25333;50.762;4.470;2022-08-19T08:45:14;4.40;;;2.30;;
38972;SDS011;25333;50.762;4.470;2022-08-19T08:47:44;4.22;;;2.00;;
38972;SDS011;25333;50.762;4.470;2022-08-19T08:50:34;4.40;;;2.27;;
38972;SDS011;25333;50.762;4.470;2022-08-19T08:53:05;3.85;;;2.20;;
38972;SDS011;25333;50.762;4.470;2022-08-19T08:55:33;5.25;;;2.13;;
38972;SDS011;25333;50.762;4.470;2022-08-19T08:58:03;2.92;;;1.67;;
38972;SDS011;25333;50.762;4.470;2022-08-19T09:00:33;3.50;;;2.15;;
38972;SDS011;25333;50.762;4.470;2022-08-19T09:03:03;3.75;;;2.50;;
38972;SDS011;25333;50.762;4.470;2022-08-19T09:08:29;5.13;;;2.72;;
38972;SDS011;25333;50.762;4.470;2022-08-19T09:11:06;4.75;;;2.80;;
38972;SDS011;25333;50.762;4.470;2022-08-19T09:13:38;3.05;;;1.80;;
38972;SDS011;25333;50.762;4.470;2022-08-19T09:16:16;4.25;;;2.53;;
38972;SDS011;25333;50.762;4.470;2022-08-19T09:18:56;3.10;;;2.28;;
38972;SDS011;25333;50.762;4.470;2022-08-19T09:21:25;4.22;;;2.20;;
38972;SDS011;25333;50.762;4.470;2022-08-19T09:23:52;3.00;;;1.83;;
38972;SDS011;25333;50.762;4.470;2022-08-19T09:26:19;5.73;;;3.07;;
38972;SDS011;25333;50.762;4.470;2022-08-19T09:28:47;3.85;;;2.40;;
38972;SDS011;25333;50.762;4.470;2022-08-19T09:31:15;5.10;;;2.83;;
38972;SDS011;25333;50.762;4.470;2022-08-19T09:33:43;5.88;;;2.25;;
38972;SDS011;25333;50.762;4.470;2022-08-19T09:36:10;4.03;;;2.47;;
38972;SDS011;25333;50.762;4.470;2022-08-19T09:38:38;4.07;;;2.35;;
38972;SDS011;25333;50.762;4.470;2022-08-19T09:41:10;3.03;;;1.85;;
38972;SDS011;25333;50.762;4.470;2022-08-19T09:43:38;3.77;;;2.30;;
38972;SDS011;25333;50.762;4.470;2022-08-19T09:46:05;4.97;;;2.90;;
38972;SDS011;25333;50.762;4.470;2022-08-19T09:48:34;6.22;;;2.50;;
38972;SDS011;25333;50.762;4.470;2022-08-19T09:51:21;5.53;;;3.13;;
38972;SDS011;25333;50.762;4.470;2022-08-19T09:53:49;5.32;;;2.10;;
38972;SDS011;25333;50.762;4.470;2022-08-19T09:56:16;3.63;;;2.42;;
38972;SDS011;25333;50.762;4.470;2022-08-19T09:58:43;4.25;;;2.35;;
38972;SDS011;25333;50.762;4.470;2022-08-19T10:01:14;5.43;;;3.10;;
38972;SDS011;25333;50.762;4.470;2022-08-19T10:03:51;4.28;;;2.15;;
38972;SDS011;25333;50.762;4.470;2022-08-19T10:06:19;4.15;;;2.45;;
38972;SDS011;25333;50.762;4.470;2022-08-19T10:08:46;3.35;;;1.90;;
38972;SDS011;25333;50.762;4.470;2022-08-19T10:11:13;4.87;;;2.60;;
38972;SDS011;25333;50.762;4.470;2022-08-19T10:13:43;4.97;;;2.30;;
38972;SDS011;25333;50.762;4.470;2022-08-19T10:16:14;3.42;;;2.05;;
38972;SDS011;25333;50.762;4.470;2022-08-19T10:18:41;4.88;;;2.80;;
38972;SDS011;25333;50.762;4.470;2022-08-19T10:21:13;4.82;;;2.88;;
38972;SDS011;25333;50.762;4.470;2022-08-19T10:23:48;4.05;;;2.80;;
38972;SDS011;25333;50.762;4.470;2022-08-19T10:26:20;3.30;;;2.63;;
38972;SDS011;25333;50.762;4.470;2022-08-19T10:28:48;6.47;;;3.15;;
38972;SDS011;25333;50.762;4.470;2022-08-19T10:31:15;6.72;;;3.25;;
38972;SDS011;25333;50.762;4.470;2022-08-19T10:33:53;4.17;;;3.20;;
38972;SDS011;25333;50.762;4.470;2022-08-19T10:36:22;5.00;;;2.70;;
38972;SDS011;25333;50.762;4.470;2022-08-19T10:38:57;5.60;;;3.47;;
38972;SDS011;25333;50.762;4.470;2022-08-19T10:41:28;4.70;;;2.95;;
38972;SDS011;25333;50.762;4.470;2022-08-19T10:43:58;4.10;;;2.80;;
38972;SDS011;25333;50.762;4.470;2022-08-19T10:46:27;5.00;;;2.85;;
38972;SDS011;25333;50.762;4.470;2022-08-19T10:48:56;5.40;;;2.67;;
38972;SDS011;25333;50.762;4.470;2022-08-19T10:51:22;4.22;;;2.80;;
38972;SDS011;25333;50.762;4.470;2022-08-19T10:54:06;4.72;;;3.03;;
38972;SDS011;25333;50.762;4.470;2022-08-19T10:56:32;5.53;;;3.87;;
38972;SDS011;25333;50.762;4.470;2022-08-19T10:59:16;5.32;;;3.58;;
38972;SDS011;25333;50.762;4.470;2022-08-19T11:01:46;4.20;;;2.97;;
38972;SDS011;25333;50.762;4.470;2022-08-19T11:04:12;7.10;;;4.20;;
38972;SDS011;25333;50.762;4.470;2022-08-19T11:06:42;6.90;;;4.07;;
38972;SDS011;25333;50.762;4.470;2022-08-19T11:09:13;6.30;;;4.13;;
38972;SDS011;25333;50.762;4.470;2022-08-19T11:11:43;6.32;;;4.55;;
38972;SDS011;25333;50.762;4.470;2022-08-19T11:14:10;4.72;;;3.78;;
38972;SDS011;25333;50.762;4.470;2022-08-19T11:16:41;6.60;;;4.97;;
38972;SDS011;25333;50.762;4.470;2022-08-19T11:19:08;5.07;;;4.40;;
38972;SDS011;25333;50.762;4.470;2022-08-19T11:21:37;4.88;;;4.00;;
38972;SDS011;25333;50.762;4.470;2022-08-19T11:24:12;4.93;;;3.85;;
38972;SDS011;25333;50.762;4.470;2022-08-19T11:26:49;5.78;;;4.22;;
38972;SDS011;25333;50.762;4.470;2022-08-19T11:29:44;7.47;;;3.55;;
38972;SDS011;25333;50.762;4.470;2022-08-19T11:32:10;6.20;;;3.90;;
38972;SDS011;25333;50.762;4.470;2022-08-19T11:34:38;5.18;;;4.13;;
38972;SDS011;25333;50.762;4.470;2022-08-19T11:40:05;5.75;;;3.63;;
38972;SDS011;25333;50.762;4.470;2022-08-19T11:42:32;4.28;;;3.65;;
38972;SDS011;25333;50.762;4.470;2022-08-19T11:45:16;5.97;;;3.83;;
38972;SDS011;25333;50.762;4.470;2022-08-19T11:47:41;4.75;;;3.58;;
38972;SDS011;25333;50.762;4.470;2022-08-19T11:50:13;5.00;;;3.53;;
38972;SDS011;25333;50.762;4.470;2022-08-19T11:52:39;4.90;;;3.50;;
38972;SDS011;25333;50.762;4.470;2022-08-19T11:55:05;4.83;;;3.20;;
38972;SDS011;25333;50.762;4.470;2022-08-19T11:57:31;5.55;;;3.22;;
38972;SDS011;25333;50.762;4.470;2022-08-19T11:59:57;6.60;;;3.53;;
38972;SDS011;25333;50.762;4.470;2022-08-19T12:02:23;4.13;;;3.40;;
38972;SDS011;25333;50.762;4.470;2022-08-19T12:04:49;4.97;;;3.53;;
38972;SDS011;25333;50.762;4.470;2022-08-19T12:07:14;6.40;;;3.30;;
38972;SDS011;25333;50.762;4.470;2022-08-19T12:09:42;3.47;;;2.80;;
38972;SDS011;25333;50.762;4.470;2022-08-19T12:12:11;5.72;;;3.42;;
38972;SDS011;25333;50.762;4.470;2022-08-19T12:14:39;3.03;;;2.45;;
38972;SDS011;25333;50.762;4.470;2022-08-19T12:17:15;5.45;;;2.50;;
38972;SDS011;25333;50.762;4.470;2022-08-19T12:19:58;3.28;;;2.70;;
38972;SDS011;25333;50.762;4.470;2022-08-19T12:22:25;4.85;;;2.80;;
38972;SDS011;25333;50.762;4.470;2022-08-19T12:24:52;3.63;;;2.88;;
38972;SDS011;25333;50.762;4.470;2022-08-19T12:27:21;4.70;;;2.45;;
38972;SDS011;25333;50.762;4.470;2022-08-19T12:29:48;5.40;;;2.90;;
38972;SDS011;25333;50.762;4.470;2022-08-19T12:32:23;5.13;;;2.53;;
38972;SDS011;25333;50.762;4.470;2022-08-19T12:34:51;3.65;;;2.55;;
38972;SDS011;25333;50.762;4.470;2022-08-19T12:37:20;3.25;;;2.17;;
38972;SDS011;25333;50.762;4.470;2022-08-19T12:39:45;3.03;;;2.15;;
38972;SDS011;25333;50.762;4.470;2022-08-19T12:42:26;4.07;;;1.85;;
38972;SDS011;25333;50.762;4.470;2022-08-19T12:44:52;3.43;;;2.10;;
38972;SDS011;25333;50.762;4.470;2022-08-19T12:47:18;2.60;;;1.63;;
38972;SDS011;25333;50.762;4.470;2022-08-19T12:49:44;2.97;;;1.10;;
38972;SDS011;25333;50.762;4.470;2022-08-19T12:52:11;1.92;;;0.82;;
38972;SDS011;25333;50.762;4.470;2022-08-19T12:54:46;1.55;;;0.80;;
38972;SDS011;25333;50.762;4.470;2022-08-19T12:57:21;2.33;;;1.05;;
38972;SDS011;25333;50.762;4.470;2022-08-19T12:59:52;3.00;;;1.13;;
38972;SDS011;25333;50.762;4.470;2022-08-19T13:02:20;2.22;;;0.88;;
38972;SDS011;25333;50.762;4.470;2022-08-19T13:04:47;1.70;;;0.75;;
38972;SDS011;25333;50.762;4.470;2022-08-19T13:07:13;2.50;;;0.70;;
38972;SDS011;25333;50.762;4.470;2022-08-19T13:09:39;0.90;;;0.50;;
38972;SDS011;25333;50.762;4.470;2022-08-19T13:12:07;1.40;;;0.70;;
38972;SDS011;25333;50.762;4.470;2022-08-19T13:14:38;1.88;;;0.80;;
38972;SDS011;25333;50.762;4.470;2022-08-19T13:17:08;2.70;;;0.90;;
38972;SDS011;25333;50.762;4.470;2022-08-19T13:19:35;1.17;;;0.68;;
38972;SDS011;25333;50.762;4.470;2022-08-19T13:22:05;2.60;;;1.13;;
38972;SDS011;25333;50.762;4.470;2022-08-19T13:24:30;2.10;;;1.15;;
38972;SDS011;25333;50.762;4.470;2022-08-19T13:26:59;2.10;;;1.10;;
38972;SDS011;25333;50.762;4.470;2022-08-19T13:29:28;1.88;;;0.98;;
38972;SDS011;25333;50.762;4.470;2022-08-19T13:32:16;2.00;;;0.70;;
38972;SDS011;25333;50.762;4.470;2022-08-19T13:35:03;1.83;;;1.00;;
38972;SDS011;25333;50.762;4.470;2022-08-19T13:37:35;1.38;;;0.57;;
38972;SDS011;25333;50.762;4.470;2022-08-19T13:40:11;1.30;;;0.60;;
38972;SDS011;25333;50.762;4.470;2022-08-19T13:42:49;1.30;;;0.73;;
38972;SDS011;25333;50.762;4.470;2022-08-19T13:45:36;1.35;;;0.77;;
38972;SDS011;25333;50.762;4.470;2022-08-19T13:48:04;1.45;;;0.55;;
38972;SDS011;25333;50.762;4.470;2022-08-19T13:50:33;2.92;;;0.57;;
38972;SDS011;25333;50.762;4.470;2022-08-19T13:53:19;1.85;;;0.50;;
38972;SDS011;25333;50.762;4.470;2022-08-19T13:55:44;1.37;;;0.73;;
38972;SDS011;25333;50.762;4.470;2022-08-19T13:58:11;1.35;;;0.45;;
38972;SDS011;25333;50.762;4.470;2022-08-19T14:00:40;1.20;;;0.50;;
38972;SDS011;25333;50.762;4.470;2022-08-19T14:03:07;1.40;;;0.43;;
38972;SDS011;25333;50.762;4.470;2022-08-19T14:05:40;0.50;;;0.35;;
38972;SDS011;25333;50.762;4.470;2022-08-19T14:08:06;0.85;;;0.30;;
38972;SDS011;25333;50.762;4.470;2022-08-19T14:10:32;1.42;;;0.60;;
38972;SDS011;25333;50.762;4.470;2022-08-19T14:12:59;1.38;;;0.50;;
38972;SDS011;25333;50.762;4.470;2022-08-19T14:15:27;0.95;;;0.30;;
38972;SDS011;25333;50.762;4.470;2022-08-19T14:17:54;1.70;;;0.50;;
38972;SDS011;25333;50.762;4.470;2022-08-19T14:20:20;3.35;;;0.45;;
38972;SDS011;25333;50.762;4.470;2022-08-19T14:22:47;1.30;;;0.30;;
38972;SDS011;25333;50.762;4.470;2022-08-19T14:25:17;1.73;;;0.47;;
38972;SDS011;25333;50.762;4.470;2022-08-19T14:27:45;2.83;;;0.40;;
38972;SDS011;25333;50.762;4.470;2022-08-19T14:30:12;0.80;;;0.35;;
38972;SDS011;25333;50.762;4.470;2022-08-19T14:32:49;1.30;;;0.68;;
38972;SDS011;25333;50.762;4.470;2022-08-19T14:35:15;1.85;;;0.70;;
38972;SDS011;25333;50.762;4.470;2022-08-19T14:37:43;1.63;;;0.50;;
38972;SDS011;25333;50.762;4.470;2022-08-19T14:40:10;2.03;;;0.40;;
38972;SDS011;25333;50.762;4.470;2022-08-19T14:42:37;1.23;;;0.32;;
38972;SDS011;25333;50.762;4.470;2022-08-19T14:45:03;1.02;;;0.25;;
38972;SDS011;25333;50.762;4.470;2022-08-19T14:47:30;1.35;;;0.30;;
38972;SDS011;25333;50.762;4.470;2022-08-19T14:49:57;1.50;;;0.20;;
38972;SDS011;25333;50.762;4.470;2022-08-19T14:52:22;0.57;;;0.20;;
38972;SDS011;25333;50.762;4.470;2022-08-19T14:54:52;1.10;;;0.10;;
38972;SDS011;25333;50.762;4.470;2022-08-19T14:57:18;0.73;;;0.10;;
38972;SDS011;25333;50.762;4.470;2022-08-19T14:59:44;0.47;;;0.20;;
38972;SDS011;25333;50.762;4.470;2022-08-19T15:02:12;1.50;;;0.20;;
38972;SDS011;25333;50.762;4.470;2022-08-19T15:04:45;1.43;;;0.20;;